createdAt,value
2023-05-21T00:01:25.646Z,20.08
2023-05-21T00:03:52.688Z,20.07
2023-05-21T00:06:20.952Z,20.03
2023-05-21T00:08:48.100Z,19.98
2023-05-21T00:11:14.939Z,19.94
2023-05-21T00:13:42.163Z,19.89
2023-05-21T00:16:10.991Z,19.84
2023-05-21T00:18:39.438Z,19.81
2023-05-21T00:21:06.709Z,19.78
2023-05-21T00:23:34.082Z,19.76
2023-05-21T00:26:01.290Z,19.74
2023-05-21T00:28:28.199Z,19.72
2023-05-21T00:30:55.045Z,19.69
2023-05-21T00:33:22.538Z,19.67
2023-05-21T00:35:49.410Z,19.65
2023-05-21T00:38:18.480Z,19.63
2023-05-21T00:40:45.474Z,19.60
2023-05-21T00:43:14.394Z,19.59
2023-05-21T00:45:44.668Z,19.56
2023-05-21T00:48:12.978Z,19.53
2023-05-21T00:50:40.637Z,19.52
2023-05-21T00:53:11.386Z,19.50
2023-05-21T00:55:38.616Z,19.47
2023-05-21T00:58:06.612Z,19.44
2023-05-21T01:00:40.588Z,19.41
2023-05-21T01:03:08.079Z,19.41
2023-05-21T01:05:35.474Z,19.38
2023-05-21T01:08:03.197Z,19.37
2023-05-21T01:10:30.835Z,19.34
2023-05-21T01:12:59.125Z,19.32
2023-05-21T01:15:27.366Z,19.31
2023-05-21T01:17:55.779Z,19.29
2023-05-21T01:20:24.621Z,19.27
2023-05-21T01:22:54.069Z,19.25
2023-05-21T01:25:24.094Z,19.23
2023-05-21T01:27:51.472Z,19.13
2023-05-21T01:30:20.046Z,19.21
2023-05-21T01:33:17.486Z,19.13
2023-05-21T01:36:08.900Z,19.10
2023-05-21T01:38:49.322Z,19.07
2023-05-21T01:41:19.952Z,19.08
2023-05-21T01:43:48.015Z,19.07
2023-05-21T01:46:20.378Z,19.04
2023-05-21T01:48:49.968Z,19.03
2023-05-21T01:51:17.109Z,19.03
2023-05-21T01:53:43.954Z,19.02
2023-05-21T01:56:11.252Z,19.02
2023-05-21T01:58:38.163Z,19.01
2023-05-21T02:01:05.596Z,18.98
2023-05-21T02:03:32.884Z,18.95
2023-05-21T02:05:59.828Z,18.93
2023-05-21T02:08:27.834Z,18.93
2023-05-21T02:10:55.563Z,18.92
2023-05-21T02:13:25.173Z,18.90
2023-05-21T02:15:54.442Z,18.90
2023-05-21T02:18:21.782Z,18.87
2023-05-21T02:20:48.662Z,18.85
2023-05-21T02:23:15.677Z,18.85
2023-05-21T02:25:42.517Z,18.83
2023-05-21T02:28:09.441Z,18.82
2023-05-21T02:30:36.696Z,18.81
2023-05-21T02:33:03.665Z,18.79
2023-05-21T02:35:30.727Z,18.78
2023-05-21T02:37:59.264Z,18.78
2023-05-21T02:40:26.394Z,18.78
2023-05-21T02:42:53.293Z,18.75
2023-05-21T02:45:21.633Z,18.74
2023-05-21T02:47:48.618Z,18.73
2023-05-21T02:50:18.458Z,18.63
2023-05-21T02:52:52.349Z,18.72
2023-05-21T02:55:19.457Z,18.72
2023-05-21T02:57:46.287Z,18.73
2023-05-21T03:00:14.174Z,18.73
2023-05-21T03:02:43.240Z,18.74
2023-05-21T03:05:10.520Z,18.75
2023-05-21T03:07:37.382Z,18.77
2023-05-21T03:10:05.386Z,18.78
2023-05-21T03:12:32.301Z,18.79
2023-05-21T03:15:00.813Z,18.80
2023-05-21T03:17:28.313Z,18.80
2023-05-21T03:19:55.911Z,18.79
2023-05-21T03:22:22.849Z,18.77
2023-05-21T03:24:50.109Z,18.76
2023-05-21T03:27:18.313Z,18.74
2023-05-21T03:29:46.008Z,18.72
2023-05-21T03:32:13.521Z,18.69
2023-05-21T03:34:41.035Z,18.66
2023-05-21T03:37:08.388Z,18.64
2023-05-21T03:39:35.440Z,18.62
2023-05-21T03:42:02.573Z,18.61
2023-05-21T03:44:46.554Z,18.58
2023-05-21T03:47:30.446Z,18.53
2023-05-21T03:49:58.455Z,18.52
2023-05-21T03:52:25.422Z,18.51
2023-05-21T03:54:52.454Z,18.48
2023-05-21T03:57:19.396Z,18.49
2023-05-21T03:59:47.626Z,18.50
2023-05-21T04:02:15.625Z,18.50
2023-05-21T04:04:44.310Z,18.49
2023-05-21T04:07:14.533Z,18.51
2023-05-21T04:09:42.069Z,18.52
2023-05-21T04:12:08.984Z,18.53
2023-05-21T04:14:40.117Z,18.56
2023-05-21T04:17:06.981Z,18.56
2023-05-21T04:19:34.121Z,18.59
2023-05-21T04:22:03.690Z,18.59
2023-05-21T04:24:32.180Z,18.59
2023-05-21T04:27:13.833Z,18.58
2023-05-21T04:29:43.200Z,18.56
2023-05-21T04:32:11.616Z,18.57
2023-05-21T04:34:39.618Z,18.59
2023-05-21T04:37:06.902Z,18.60
2023-05-21T04:39:34.717Z,18.63
2023-05-21T04:42:03.033Z,18.66
2023-05-21T04:44:30.266Z,18.65
2023-05-21T04:46:58.729Z,18.64
2023-05-21T04:49:25.716Z,18.65
2023-05-21T04:51:52.617Z,18.66
2023-05-21T04:54:20.426Z,18.67
2023-05-21T04:56:47.324Z,18.69
2023-05-21T04:59:14.931Z,18.72
2023-05-21T05:01:43.824Z,18.76
2023-05-21T05:04:10.776Z,18.79
2023-05-21T05:06:37.677Z,18.83
2023-05-21T05:09:05.402Z,18.86
2023-05-21T05:11:32.277Z,18.92
2023-05-21T05:13:59.165Z,18.96
2023-05-21T05:16:26.068Z,18.99
2023-05-21T05:18:56.354Z,19.03
2023-05-21T05:21:24.056Z,19.06
2023-05-21T05:23:51.088Z,19.13
2023-05-21T05:26:19.616Z,19.17
2023-05-21T05:28:46.732Z,19.24
2023-05-21T05:31:14.200Z,19.29
2023-05-21T05:33:43.224Z,19.32
2023-05-21T05:36:11.747Z,19.37
2023-05-21T05:38:38.760Z,19.42
2023-05-21T05:41:05.622Z,19.48
2023-05-21T05:43:32.533Z,19.53
2023-05-21T05:46:00.562Z,19.59
2023-05-21T05:48:27.550Z,19.67
2023-05-21T05:50:57.121Z,19.74
2023-05-21T05:53:25.765Z,19.81
2023-05-21T05:55:53.179Z,19.89
2023-05-21T05:58:20.120Z,19.97
2023-05-21T06:01:19.566Z,20.01
2023-05-21T06:03:47.417Z,20.09
2023-05-21T06:06:17.167Z,20.17
2023-05-21T06:08:44.762Z,20.26
2023-05-21T06:11:12.533Z,20.34
2023-05-21T06:13:39.445Z,20.44
2023-05-21T06:16:07.522Z,20.52
2023-05-21T06:18:34.503Z,20.60
2023-05-21T06:21:01.542Z,20.69
2023-05-21T06:23:28.831Z,20.76
2023-05-21T06:25:55.776Z,20.84
2023-05-21T06:28:22.966Z,20.95
2023-05-21T06:30:50.725Z,21.05
2023-05-21T06:33:17.715Z,21.19
2023-05-21T06:35:44.639Z,21.29
2023-05-21T06:38:12.273Z,21.40
2023-05-21T06:40:39.157Z,21.47
2023-05-21T06:43:08.135Z,21.57
2023-05-21T06:45:53.507Z,21.67
2023-05-21T06:48:36.004Z,21.76
2023-05-21T06:51:02.818Z,21.85
2023-05-21T06:53:29.692Z,21.94
2023-05-21T06:55:56.579Z,22.03
2023-05-21T06:58:49.558Z,22.13
2023-05-21T07:01:17.096Z,22.25
2023-05-21T07:03:44.283Z,22.37
2023-05-21T07:06:11.383Z,22.50
2023-05-21T07:08:38.242Z,22.61
2023-05-21T07:11:05.118Z,22.73
2023-05-21T07:13:32.301Z,22.86
2023-05-21T07:15:59.214Z,22.99
2023-05-21T07:18:27.407Z,23.11
2023-05-21T07:20:54.740Z,23.21
2023-05-21T07:23:21.641Z,23.32
2023-05-21T07:25:48.511Z,23.43
2023-05-21T07:28:15.471Z,23.54
2023-05-21T07:30:42.564Z,23.65
2023-05-21T07:33:13.906Z,23.74
2023-05-21T07:35:40.970Z,23.84
2023-05-21T07:38:08.062Z,23.93
2023-05-21T07:40:34.963Z,24.00
2023-05-21T07:43:03.209Z,24.08
2023-05-21T07:45:31.287Z,24.16
2023-05-21T07:47:58.403Z,24.24
2023-05-21T07:50:26.607Z,24.28
2023-05-21T07:52:54.598Z,24.34
2023-05-21T07:55:21.698Z,24.38
2023-05-21T07:57:49.385Z,24.43
2023-05-21T08:00:19.022Z,24.48
2023-05-21T08:02:53.506Z,24.55
2023-05-21T08:05:23.367Z,24.61
2023-05-21T08:07:50.654Z,24.66
2023-05-21T08:10:19.476Z,24.71
2023-05-21T08:12:48.434Z,24.75
2023-05-21T08:15:15.381Z,24.84
2023-05-21T08:17:46.014Z,24.93
2023-05-21T08:20:14.287Z,25.00
2023-05-21T08:22:43.673Z,25.06
2023-05-21T08:25:11.074Z,25.13
2023-05-21T08:27:38.293Z,25.18
2023-05-21T08:30:06.772Z,25.23
2023-05-21T08:32:33.676Z,25.31
2023-05-21T08:35:01.681Z,25.36
2023-05-21T08:37:44.020Z,25.43
2023-05-21T08:40:19.541Z,25.47
2023-05-21T08:42:49.779Z,25.50
2023-05-21T08:45:38.066Z,25.54
2023-05-21T08:48:05.961Z,25.43
2023-05-21T08:50:34.686Z,25.56
2023-05-21T08:53:15.798Z,25.57
2023-05-21T08:55:47.021Z,25.59
2023-05-21T08:58:14.707Z,25.62
2023-05-21T09:00:42.038Z,25.66
2023-05-21T09:03:12.260Z,25.68
2023-05-21T09:05:45.012Z,25.71
2023-05-21T09:08:35.907Z,25.69
2023-05-21T09:11:07.022Z,25.82
2023-05-21T09:13:44.957Z,25.86
2023-05-21T09:16:19.252Z,25.89
2023-05-21T09:18:46.163Z,25.93
2023-05-21T09:21:29.778Z,25.95
2023-05-21T09:24:04.762Z,26.00
2023-05-21T09:26:31.951Z,26.01
2023-05-21T09:29:03.634Z,26.06
2023-05-21T09:31:30.706Z,26.11
2023-05-21T09:33:58.788Z,26.15
2023-05-21T09:36:29.271Z,26.20
2023-05-21T09:38:58.288Z,26.16
2023-05-21T09:41:33.642Z,26.32
2023-05-21T09:44:02.428Z,26.42
2023-05-21T09:46:41.341Z,26.43
2023-05-21T09:49:24.696Z,26.46
2023-05-21T09:51:56.713Z,26.55
2023-05-21T09:54:24.893Z,26.62
2023-05-21T09:56:55.284Z,26.65
2023-05-21T09:59:22.329Z,26.66
2023-05-21T10:01:53.031Z,26.62
2023-05-21T10:04:21.219Z,26.61
2023-05-21T10:06:48.957Z,26.59
2023-05-21T10:09:19.117Z,26.56
2023-05-21T10:11:49.489Z,26.52
2023-05-21T10:14:22.372Z,26.46
2023-05-21T10:16:50.356Z,26.46
2023-05-21T10:19:17.994Z,26.44
2023-05-21T10:21:46.217Z,26.40
2023-05-21T10:24:13.711Z,26.37
2023-05-21T10:26:41.832Z,26.35
2023-05-21T10:29:10.117Z,26.37
2023-05-21T10:31:39.175Z,26.39
2023-05-21T10:34:06.337Z,26.44
2023-05-21T10:36:34.289Z,26.46
2023-05-21T10:39:03.011Z,26.51
2023-05-21T10:41:46.081Z,26.50
2023-05-21T10:44:44.422Z,26.52
2023-05-21T10:47:46.061Z,26.56
2023-05-21T10:50:57.886Z,26.63
2023-05-21T10:53:49.046Z,26.75
2023-05-21T10:56:38.211Z,26.84
2023-05-21T10:59:31.861Z,26.87
2023-05-21T11:01:59.368Z,27.03
2023-05-21T11:04:30.942Z,27.07
2023-05-21T11:06:59.295Z,27.16
2023-05-21T11:09:26.852Z,27.23
2023-05-21T11:11:58.683Z,27.28
2023-05-21T11:14:58.118Z,27.30
2023-05-21T11:17:43.070Z,27.42
2023-05-21T11:20:14.252Z,27.59
2023-05-21T11:22:41.250Z,27.75
2023-05-21T11:25:08.564Z,27.88
2023-05-21T11:27:42.413Z,27.93
2023-05-21T11:30:15.841Z,27.99
2023-05-21T11:33:09.956Z,27.99
2023-05-21T11:35:44.824Z,28.07
2023-05-21T11:38:11.682Z,28.11
2023-05-21T11:40:50.658Z,28.03
2023-05-21T11:43:18.868Z,28.05
2023-05-21T11:45:47.260Z,28.06
2023-05-21T11:48:14.487Z,28.04
2023-05-21T11:50:44.669Z,28.03
2023-05-21T11:53:12.200Z,28.01
2023-05-21T11:55:43.381Z,27.97
2023-05-21T11:58:14.369Z,27.94
2023-05-21T12:00:41.450Z,28.00
2023-05-21T12:03:12.843Z,28.04
2023-05-21T12:05:48.052Z,28.06
2023-05-21T12:08:27.743Z,28.13
2023-05-21T12:10:59.944Z,28.20
2023-05-21T12:13:27.898Z,28.30
2023-05-21T12:15:54.807Z,28.38
2023-05-21T12:18:22.170Z,28.44
2023-05-21T12:20:49.747Z,28.47
2023-05-21T12:23:25.870Z,28.48
2023-05-21T12:25:53.663Z,28.60
2023-05-21T12:28:24.639Z,28.65
2023-05-21T12:30:51.563Z,28.76
2023-05-21T12:33:19.005Z,28.83
2023-05-21T12:35:50.362Z,28.88
2023-05-21T12:38:17.440Z,28.95
2023-05-21T12:40:45.434Z,29.03
2023-05-21T12:43:12.418Z,29.09
2023-05-21T12:45:39.667Z,29.15
2023-05-21T12:48:06.955Z,29.21
2023-05-21T12:50:35.594Z,29.29
2023-05-21T12:53:02.878Z,29.38
2023-05-21T12:55:31.663Z,29.45
2023-05-21T12:58:08.864Z,29.50
2023-05-21T13:00:36.854Z,29.56
2023-05-21T13:03:07.152Z,29.61
2023-05-21T13:05:34.635Z,29.69
2023-05-21T13:08:01.707Z,29.77
2023-05-21T13:10:28.656Z,29.84
2023-05-21T13:12:55.699Z,29.91
2023-05-21T13:15:22.602Z,29.97
2023-05-21T13:17:50.844Z,30.04
2023-05-21T13:20:23.698Z,30.07
2023-05-21T13:22:52.022Z,30.11
2023-05-21T13:25:22.012Z,30.11
2023-05-21T13:27:50.372Z,30.17
2023-05-21T13:30:18.728Z,30.21
2023-05-21T13:32:45.939Z,30.27
2023-05-21T13:35:12.951Z,30.35
2023-05-21T13:37:41.296Z,30.39
2023-05-21T13:40:14.857Z,30.41
2023-05-21T13:42:46.961Z,30.47
2023-05-21T13:45:17.673Z,30.54
2023-05-21T13:47:46.891Z,30.56
2023-05-21T13:50:14.078Z,30.59
2023-05-21T13:52:41.165Z,30.61
2023-05-21T13:55:08.889Z,30.63
2023-05-21T13:57:35.912Z,30.64
2023-05-21T14:00:03.801Z,30.64
2023-05-21T14:02:34.665Z,30.63
2023-05-21T14:05:01.743Z,30.62
2023-05-21T14:07:28.674Z,30.61
2023-05-21T14:09:55.999Z,30.61
2023-05-21T14:12:22.950Z,30.61
2023-05-21T14:14:49.932Z,30.59
2023-05-21T14:17:17.093Z,30.58
2023-05-21T14:19:43.978Z,30.58
2023-05-21T14:22:11.216Z,30.53
2023-05-21T14:24:38.120Z,30.50
2023-05-21T14:27:05.177Z,30.47
2023-05-21T14:29:33.169Z,30.45
2023-05-21T14:32:00.118Z,30.44
2023-05-21T14:34:27.239Z,30.43
2023-05-21T14:36:54.120Z,30.42
2023-05-21T14:39:20.969Z,30.40
2023-05-21T14:41:47.805Z,30.37
2023-05-21T14:44:14.635Z,30.34
2023-05-21T14:46:41.915Z,30.29
2023-05-21T14:49:08.972Z,30.27
2023-05-21T14:51:35.807Z,30.25
2023-05-21T14:54:02.671Z,30.23
2023-05-21T14:56:29.555Z,30.19
2023-05-21T14:58:56.485Z,30.15
2023-05-21T15:01:23.772Z,30.13
2023-05-21T15:03:51.113Z,30.12
2023-05-21T15:06:18.266Z,30.09
2023-05-21T15:08:45.123Z,30.07
2023-05-21T15:11:11.933Z,30.03
2023-05-21T15:13:39.504Z,30.01
2023-05-21T15:16:06.719Z,29.99
2023-05-21T15:18:33.949Z,29.95
2023-05-21T15:21:00.798Z,29.92
2023-05-21T15:23:27.744Z,29.90
2023-05-21T15:25:55.522Z,29.88
2023-05-21T15:28:22.970Z,29.90
2023-05-21T15:30:49.864Z,29.88
2023-05-21T15:33:16.779Z,29.87
2023-05-21T15:35:44.273Z,29.85
2023-05-21T15:38:11.684Z,29.83
